sensor_id;sensor_type;location;lat;lon;timestamp;pressure;altitude;pressure_sealevel;temperature;humidity
42289;BME280;30230;47.520;19.016;2023-06-04T00:01:49;99362.47;;;13.09;59.18
42289;BME280;30230;47.520;19.016;2023-06-04T00:03:49;99361.63;;;13.09;59.34
42289;BME280;30230;47.520;19.016;2023-06-04T00:05:49;99357.22;;;13.08;60.09
42289;BME280;30230;47.520;19.016;2023-06-04T00:07:51;99351.97;;;13.13;59.71
42289;BME280;30230;47.520;19.016;2023-06-04T00:09:52;99348.63;;;13.17;59.63
42289;BME280;30230;47.520;19.016;2023-06-04T00:11:53;99355.47;;;13.26;57.54
42289;BME280;30230;47.520;19.016;2023-06-04T00:13:53;99355.25;;;13.28;58.20
42289;BME280;30230;47.520;19.016;2023-06-04T00:15:54;99353.41;;;13.28;56.26
42289;BME280;30230;47.520;19.016;2023-06-04T00:17:54;99347.34;;;13.26;58.65
42289;BME280;30230;47.520;19.016;2023-06-04T00:19:56;99361.00;;;13.45;56.63
42289;BME280;30230;47.520;19.016;2023-06-04T00:21:57;99354.94;;;13.43;56.93
42289;BME280;30230;47.520;19.016;2023-06-04T00:23:57;99355.41;;;13.40;57.74
42289;BME280;30230;47.520;19.016;2023-06-04T00:25:58;99361.03;;;13.38;58.98
42289;BME280;30230;47.520;19.016;2023-06-04T00:27:58;99352.13;;;13.31;58.72
42289;BME280;30230;47.520;19.016;2023-06-04T00:29:58;99350.31;;;13.18;59.30
42289;BME280;30230;47.520;19.016;2023-06-04T00:31:59;99349.88;;;13.21;60.80
42289;BME280;30230;47.520;19.016;2023-06-04T00:33:59;99344.47;;;13.15;61.60
42289;BME280;30230;47.520;19.016;2023-06-04T00:36:00;99346.78;;;13.11;60.37
42289;BME280;30230;47.520;19.016;2023-06-04T00:38:00;99348.63;;;13.17;60.72
42289;BME280;30230;47.520;19.016;2023-06-04T00:40:00;99335.66;;;13.26;60.03
42289;BME280;30230;47.520;19.016;2023-06-04T00:42:01;99341.91;;;13.26;60.80
42289;BME280;30230;47.520;19.016;2023-06-04T00:44:01;99342.38;;;13.23;58.71
42289;BME280;30230;47.520;19.016;2023-06-04T00:46:02;99349.16;;;13.39;59.11
42289;BME280;30230;47.520;19.016;2023-06-04T00:48:03;99349.75;;;13.41;57.84
42289;BME280;30230;47.520;19.016;2023-06-04T00:50:04;99345.16;;;13.42;57.58
42289;BME280;30230;47.520;19.016;2023-06-04T00:52:05;99325.16;;;13.36;58.88
42289;BME280;30230;47.520;19.016;2023-06-04T00:54:07;99337.94;;;13.54;55.35
42289;BME280;30230;47.520;19.016;2023-06-04T00:56:09;99317.25;;;13.35;54.98
42289;BME280;30230;47.520;19.016;2023-06-04T00:58:09;99341.44;;;13.36;56.12
42289;BME280;30230;47.520;19.016;2023-06-04T01:00:10;99342.72;;;13.34;57.71
42289;BME280;30230;47.520;19.016;2023-06-04T01:02:13;99340.28;;;13.19;59.49
42289;BME280;30230;47.520;19.016;2023-06-04T01:04:20;99333.69;;;13.08;58.09
42289;BME280;30230;47.520;19.016;2023-06-04T01:06:39;99351.97;;;13.13;60.64
42289;BME280;30230;47.520;19.016;2023-06-04T01:08:41;99339.09;;;13.08;59.34
42289;BME280;30230;47.520;19.016;2023-06-04T01:10:53;99348.25;;;13.07;58.98
42289;BME280;30230;47.520;19.016;2023-06-04T01:12:54;99322.66;;;13.03;57.13
42289;BME280;30230;47.520;19.016;2023-06-04T01:14:55;99341.38;;;13.11;59.48
42289;BME280;30230;47.520;19.016;2023-06-04T01:16:58;99333.69;;;13.08;58.59
42289;BME280;30230;47.520;19.016;2023-06-04T01:19:04;99338.06;;;13.09;59.12
42289;BME280;30230;47.520;19.016;2023-06-04T01:21:10;99341.41;;;13.04;59.44
42289;BME280;30230;47.520;19.016;2023-06-04T01:23:40;99345.78;;;13.06;59.91
42289;BME280;30230;47.520;19.016;2023-06-04T01:25:46;99340.34;;;13.06;59.50
42289;BME280;30230;47.520;19.016;2023-06-04T01:27:51;99342.66;;;13.09;59.14
42289;BME280;30230;47.520;19.016;2023-06-04T01:29:52;99333.63;;;13.15;58.98
42289;BME280;30230;47.520;19.016;2023-06-04T01:31:53;99337.41;;;13.07;59.53
42289;BME280;30230;47.520;19.016;2023-06-04T01:33:54;99342.84;;;13.07;59.92
42289;BME280;30230;47.520;19.016;2023-06-04T01:35:56;99345.81;;;12.99;58.97
42289;BME280;30230;47.520;19.016;2023-06-04T01:37:57;99351.25;;;12.99;56.97
42289;BME280;30230;47.520;19.016;2023-06-04T01:39:57;99350.78;;;13.02;57.88
42289;BME280;30230;47.520;19.016;2023-06-04T01:41:57;99333.75;;;12.95;56.96
42289;BME280;30230;47.520;19.016;2023-06-04T01:43:58;99343.94;;;12.99;55.93
42289;BME280;30230;47.520;19.016;2023-06-04T01:45:59;99341.47;;;12.98;56.20
42289;BME280;30230;47.520;19.016;2023-06-04T01:48:01;99338.34;;;12.94;56.32
42289;BME280;30230;47.520;19.016;2023-06-04T01:50:04;99339.41;;;12.93;56.65
42289;BME280;30230;47.520;19.016;2023-06-04T01:52:09;99337.50;;;12.94;58.51
42289;BME280;30230;47.520;19.016;2023-06-04T01:54:10;99338.38;;;12.88;55.45
42289;BME280;30230;47.520;19.016;2023-06-04T01:56:11;99338.38;;;12.88;56.49
42289;BME280;30230;47.520;19.016;2023-06-04T01:58:13;99325.47;;;12.83;55.51
42289;BME280;30230;47.520;19.016;2023-06-04T02:00:14;99338.75;;;12.91;56.01
42289;BME280;30230;47.520;19.016;2023-06-04T02:02:14;99324.44;;;12.84;57.13
42289;BME280;30230;47.520;19.016;2023-06-04T02:04:15;99319.22;;;12.83;58.44
42289;BME280;30230;47.520;19.016;2023-06-04T02:06:16;99340.22;;;12.94;60.03
42289;BME280;30230;47.520;19.016;2023-06-04T02:08:17;99349.19;;;12.94;60.28
42289;BME280;30230;47.520;19.016;2023-06-04T02:10:19;99351.06;;;12.94;59.05
42289;BME280;30230;47.520;19.016;2023-06-04T02:12:19;99353.97;;;12.99;57.56
42289;BME280;30230;47.520;19.016;2023-06-04T02:14:20;99354.44;;;13.21;56.70
42289;BME280;30230;47.520;19.016;2023-06-04T02:16:20;99332.28;;;12.99;59.21
42289;BME280;30230;47.520;19.016;2023-06-04T02:18:21;99344.06;;;13.11;58.21
42289;BME280;30230;47.520;19.016;2023-06-04T02:20:22;99350.56;;;13.10;56.67
42289;BME280;30230;47.520;19.016;2023-06-04T02:22:23;99346.00;;;13.04;57.32
42289;BME280;30230;47.520;19.016;2023-06-04T02:24:24;99340.81;;;13.02;57.06
42289;BME280;30230;47.520;19.016;2023-06-04T02:26:24;99344.81;;;12.93;57.85
42289;BME280;30230;47.520;19.016;2023-06-04T02:28:26;99361.91;;;12.94;58.54
42289;BME280;30230;47.520;19.016;2023-06-04T02:30:26;99362.13;;;12.92;56.69
42289;BME280;30230;47.520;19.016;2023-06-04T02:32:26;99357.75;;;12.91;56.53
42289;BME280;30230;47.520;19.016;2023-06-04T02:34:28;99353.00;;;12.80;55.67
42289;BME280;30230;47.520;19.016;2023-06-04T02:36:29;99340.31;;;12.74;59.56
42289;BME280;30230;47.520;19.016;2023-06-04T02:38:30;99358.06;;;12.70;57.09
42289;BME280;30230;47.520;19.016;2023-06-04T02:40:30;99361.19;;;12.73;59.82
42289;BME280;30230;47.520;19.016;2023-06-04T02:42:31;99351.63;;;12.64;59.38
42289;BME280;30230;47.520;19.016;2023-06-04T02:44:31;99356.44;;;12.62;58.89
42289;BME280;30230;47.520;19.016;2023-06-04T02:46:31;99361.03;;;12.62;57.24
42289;BME280;30230;47.520;19.016;2023-06-04T02:48:32;99354.78;;;12.61;58.00
42289;BME280;30230;47.520;19.016;2023-06-04T02:50:32;99335.16;;;12.59;57.88
42289;BME280;30230;47.520;19.016;2023-06-04T02:52:33;99349.75;;;12.65;60.44
42289;BME280;30230;47.520;19.016;2023-06-04T02:54:37;99347.84;;;12.65;59.36
42289;BME280;30230;47.520;19.016;2023-06-04T02:56:38;99345.81;;;12.54;59.65
42289;BME280;30230;47.520;19.016;2023-06-04T02:58:51;99359.56;;;12.59;61.06
42289;BME280;30230;47.520;19.016;2023-06-04T03:00:53;99352.28;;;12.53;59.03
42289;BME280;30230;47.520;19.016;2023-06-04T03:02:53;99352.28;;;12.53;59.96
42289;BME280;30230;47.520;19.016;2023-06-04T03:05:01;99342.50;;;12.45;58.50
42289;BME280;30230;47.520;19.016;2023-06-04T03:07:02;99350.63;;;12.52;60.58
42289;BME280;30230;47.520;19.016;2023-06-04T03:09:04;99348.34;;;12.49;60.57
42289;BME280;30230;47.520;19.016;2023-06-04T03:11:04;99345.84;;;12.47;59.80
42289;BME280;30230;47.520;19.016;2023-06-04T03:13:05;99342.72;;;12.44;60.55
42289;BME280;30230;47.520;19.016;2023-06-04T03:15:06;99346.91;;;12.46;61.46
42289;BME280;30230;47.520;19.016;2023-06-04T03:17:06;99350.44;;;12.47;60.67
42289;BME280;30230;47.520;19.016;2023-06-04T03:19:13;99353.16;;;12.47;61.56
42289;BME280;30230;47.520;19.016;2023-06-04T03:21:13;99331.47;;;12.40;59.23
42289;BME280;30230;47.520;19.016;2023-06-04T03:23:14;99338.97;;;12.45;58.63
42289;BME280;30230;47.520;19.016;2023-06-04T03:25:14;99342.09;;;12.48;62.06
42289;BME280;30230;47.520;19.016;2023-06-04T03:27:15;99349.81;;;12.51;61.61
42289;BME280;30230;47.520;19.016;2023-06-04T03:29:15;99349.63;;;12.46;59.18
42289;BME280;30230;47.520;19.016;2023-06-04T03:31:16;99357.09;;;12.51;59.41
42289;BME280;30230;47.520;19.016;2023-06-04T03:33:16;99363.34;;;12.45;59.22
42289;BME280;30230;47.520;19.016;2023-06-04T03:35:16;99369.59;;;12.52;58.18
42289;BME280;30230;47.520;19.016;2023-06-04T03:37:17;99362.69;;;12.63;61.08
42289;BME280;30230;47.520;19.016;2023-06-04T03:39:17;99363.47;;;12.70;59.62
42289;BME280;30230;47.520;19.016;2023-06-04T03:41:18;99352.03;;;12.68;60.85
42289;BME280;30230;47.520;19.016;2023-06-04T03:43:19;99359.88;;;12.83;60.72
42289;BME280;30230;47.520;19.016;2023-06-04T03:45:20;99360.50;;;12.85;60.75
42289;BME280;30230;47.520;19.016;2023-06-04T03:47:20;99369.88;;;12.89;61.62
42289;BME280;30230;47.520;19.016;2023-06-04T03:49:21;99349.28;;;12.74;61.60
42289;BME280;30230;47.520;19.016;2023-06-04T03:51:22;99375.69;;;12.86;62.82
42289;BME280;30230;47.520;19.016;2023-06-04T03:53:22;99380.47;;;12.90;63.40
42289;BME280;30230;47.520;19.016;2023-06-04T03:55:22;99372.13;;;12.92;63.01
42289;BME280;30230;47.520;19.016;2023-06-04T03:57:24;99372.75;;;12.94;62.01
42289;BME280;30230;47.520;19.016;2023-06-04T03:59:24;99359.63;;;12.91;63.07
42289;BME280;30230;47.520;19.016;2023-06-04T04:01:25;99365.63;;;12.99;62.95
42289;BME280;30230;47.520;19.016;2023-06-04T04:03:25;99364.16;;;12.97;64.26
42289;BME280;30230;47.520;19.016;2023-06-04T04:05:31;99377.72;;;13.03;65.63
42289;BME280;30230;47.520;19.016;2023-06-04T04:07:32;99385.22;;;13.01;67.57
42289;BME280;30230;47.520;19.016;2023-06-04T04:09:32;99389.53;;;13.16;65.11
42289;BME280;30230;47.520;19.016;2023-06-04T04:11:33;99397.06;;;13.14;64.84
42289;BME280;30230;47.520;19.016;2023-06-04T04:13:33;99395.47;;;12.99;64.06
42289;BME280;30230;47.520;19.016;2023-06-04T04:15:34;99392.97;;;12.91;64.94
42289;BME280;30230;47.520;19.016;2023-06-04T04:17:34;99384.84;;;12.91;65.65
42289;BME280;30230;47.520;19.016;2023-06-04T04:19:35;99390.25;;;12.98;66.18
42289;BME280;30230;47.520;19.016;2023-06-04T04:21:36;99383.22;;;12.84;66.77
42289;BME280;30230;47.520;19.016;2023-06-04T04:23:38;99402.63;;;12.87;67.52
42289;BME280;30230;47.520;19.016;2023-06-04T04:25:43;99391.31;;;12.90;67.06
42289;BME280;30230;47.520;19.016;2023-06-04T04:27:47;99391.50;;;12.95;67.86
42289;BME280;30230;47.520;19.016;2023-06-04T04:29:48;99389.16;;;13.06;68.62
42289;BME280;30230;47.520;19.016;2023-06-04T04:31:49;99387.50;;;13.04;68.63
42289;BME280;30230;47.520;19.016;2023-06-04T04:33:50;99386.88;;;13.09;69.17
42289;BME280;30230;47.520;19.016;2023-06-04T04:35:51;99403.06;;;13.22;69.39
42289;BME280;30230;47.520;19.016;2023-06-04T04:37:55;99403.66;;;13.31;69.62
42289;BME280;30230;47.520;19.016;2023-06-04T04:39:55;99397.81;;;13.34;68.39
42289;BME280;30230;47.520;19.016;2023-06-04T04:41:56;99400.16;;;13.55;64.99
42289;BME280;30230;47.520;19.016;2023-06-04T04:44:03;99382.59;;;13.58;63.49
42289;BME280;30230;47.520;19.016;2023-06-04T04:46:03;99390.81;;;13.76;62.14
42289;BME280;30230;47.520;19.016;2023-06-04T04:48:04;99394.63;;;13.94;61.94
42289;BME280;30230;47.520;19.016;2023-06-04T04:50:05;99391.84;;;14.00;63.32
42289;BME280;30230;47.520;19.016;2023-06-04T04:52:06;99392.56;;;14.14;63.36
42289;BME280;30230;47.520;19.016;2023-06-04T04:54:06;99395.00;;;14.22;65.43
42289;BME280;30230;47.520;19.016;2023-06-04T04:56:06;99380.22;;;14.18;62.75
42289;BME280;30230;47.520;19.016;2023-06-04T04:58:07;99391.94;;;14.37;60.96
42289;BME280;30230;47.520;19.016;2023-06-04T05:00:08;99379.03;;;14.32;62.83
42289;BME280;30230;47.520;19.016;2023-06-04T05:02:09;99396.06;;;14.40;64.06
42289;BME280;30230;47.520;19.016;2023-06-04T05:04:09;99400.69;;;14.39;64.99
42289;BME280;30230;47.520;19.016;2023-06-04T05:06:10;99378.25;;;14.25;63.28
42289;BME280;30230;47.520;19.016;2023-06-04T05:08:11;99397.88;;;14.46;64.37
42289;BME280;30230;47.520;19.016;2023-06-04T05:10:11;99404.34;;;14.51;66.46
42289;BME280;30230;47.520;19.016;2023-06-04T05:12:12;99401.84;;;14.50;67.11
42289;BME280;30230;47.520;19.016;2023-06-04T05:14:13;99395.97;;;14.53;65.36
42289;BME280;30230;47.520;19.016;2023-06-04T05:16:14;99403.06;;;14.54;62.52
42289;BME280;30230;47.520;19.016;2023-06-04T05:18:14;99393.09;;;14.48;62.04
42289;BME280;30230;47.520;19.016;2023-06-04T05:20:16;99418.09;;;14.56;59.92
42289;BME280;30230;47.520;19.016;2023-06-04T05:22:16;99416.00;;;14.58;61.15
42289;BME280;30230;47.520;19.016;2023-06-04T05:24:18;99418.84;;;14.64;59.89
42289;BME280;30230;47.520;19.016;2023-06-04T05:26:19;99420.94;;;14.62;60.57
42289;BME280;30230;47.520;19.016;2023-06-04T05:28:23;99426.63;;;14.60;58.70
42289;BME280;30230;47.520;19.016;2023-06-04T05:30:26;99424.88;;;14.66;58.23
42289;BME280;30230;47.520;19.016;2023-06-04T05:32:28;99419.97;;;14.56;57.22
42289;BME280;30230;47.520;19.016;2023-06-04T05:34:32;99424.28;;;14.64;58.41
42289;BME280;30230;47.520;19.016;2023-06-04T05:36:32;99416.00;;;14.58;59.13
42289;BME280;30230;47.520;19.016;2023-06-04T05:38:33;99421.09;;;14.67;60.73
42289;BME280;30230;47.520;19.016;2023-06-04T05:40:35;99414.25;;;14.64;61.33
42289;BME280;30230;47.520;19.016;2023-06-04T05:42:36;99424.97;;;14.77;61.09
42289;BME280;30230;47.520;19.016;2023-06-04T05:44:37;99427.16;;;14.87;62.69
42289;BME280;30230;47.520;19.016;2023-06-04T05:46:37;99436.06;;;14.94;62.89
42289;BME280;30230;47.520;19.016;2023-06-04T05:48:38;99422.00;;;14.97;63.47
42289;BME280;30230;47.520;19.016;2023-06-04T05:50:38;99421.75;;;14.99;59.20
42289;BME280;30230;47.520;19.016;2023-06-04T05:52:39;99428.56;;;15.08;56.71
42289;BME280;30230;47.520;19.016;2023-06-04T05:54:39;99415.09;;;15.13;53.94
42289;BME280;30230;47.520;19.016;2023-06-04T05:56:40;99431.16;;;15.33;49.46
42289;BME280;30230;47.520;19.016;2023-06-04T05:58:40;99409.81;;;15.18;49.77
42289;BME280;30230;47.520;19.016;2023-06-04T06:00:41;99433.34;;;15.43;49.29
42289;BME280;30230;47.520;19.016;2023-06-04T06:02:42;99409.97;;;15.35;51.35
42289;BME280;30230;47.520;19.016;2023-06-04T06:04:47;99415.94;;;15.44;50.88
42289;BME280;30230;47.520;19.016;2023-06-04T06:06:47;99407.22;;;15.53;51.84
42289;BME280;30230;47.520;19.016;2023-06-04T06:08:48;99424.47;;;15.77;51.88
42289;BME280;30230;47.520;19.016;2023-06-04T06:10:49;99415.25;;;15.78;53.38
42289;BME280;30230;47.520;19.016;2023-06-04T06:12:50;99427.09;;;15.84;54.53
42289;BME280;30230;47.520;19.016;2023-06-04T06:14:50;99426.53;;;15.94;51.78
42289;BME280;30230;47.520;19.016;2023-06-04T06:16:51;99414.81;;;16.05;50.19
42289;BME280;30230;47.520;19.016;2023-06-04T06:18:53;99430.22;;;16.34;51.36
42289;BME280;30230;47.520;19.016;2023-06-04T06:20:54;99422.03;;;16.46;49.74
42289;BME280;30230;47.520;19.016;2023-06-04T06:22:54;99426.41;;;16.59;49.70
42289;BME280;30230;47.520;19.016;2023-06-04T06:24:55;99426.19;;;16.72;45.38
42289;BME280;30230;47.520;19.016;2023-06-04T06:26:55;99426.41;;;16.71;47.83
42289;BME280;30230;47.520;19.016;2023-06-04T06:28:56;99420.94;;;16.59;48.95
42289;BME280;30230;47.520;19.016;2023-06-04T06:30:56;99426.19;;;16.72;48.86
42289;BME280;30230;47.520;19.016;2023-06-04T06:32:57;99429.38;;;16.81;48.16
42289;BME280;30230;47.520;19.016;2023-06-04T06:34:57;99424.75;;;16.81;50.01
42289;BME280;30230;47.520;19.016;2023-06-04T06:36:58;99431.00;;;16.93;50.11
42289;BME280;30230;47.520;19.016;2023-06-04T06:38:58;99431.81;;;17.06;47.89
42289;BME280;30230;47.520;19.016;2023-06-04T06:40:59;99427.03;;;17.13;47.09
42289;BME280;30230;47.520;19.016;2023-06-04T06:42:59;99431.53;;;17.19;48.59
42289;BME280;30230;47.520;19.016;2023-06-04T06:45:00;99443.00;;;17.21;49.80
42289;BME280;30230;47.520;19.016;2023-06-04T06:47:00;99436.63;;;17.15;49.48
42289;BME280;30230;47.520;19.016;2023-06-04T06:49:02;99428.22;;;17.17;49.52
42289;BME280;30230;47.520;19.016;2023-06-04T06:51:02;99441.75;;;17.12;47.32
42289;BME280;30230;47.520;19.016;2023-06-04T06:53:03;99462.41;;;17.08;47.60
42289;BME280;30230;47.520;19.016;2023-06-04T06:55:04;99455.91;;;16.97;47.80
42289;BME280;30230;47.520;19.016;2023-06-04T06:57:08;99457.09;;;17.01;47.48
42289;BME280;30230;47.520;19.016;2023-06-04T06:59:09;99448.19;;;16.94;46.29
42289;BME280;30230;47.520;19.016;2023-06-04T07:01:09;99453.91;;;16.92;45.27
42289;BME280;30230;47.520;19.016;2023-06-04T07:03:10;99464.56;;;17.06;44.18
42289;BME280;30230;47.520;19.016;2023-06-04T07:05:11;99467.59;;;17.21;45.54
42289;BME280;30230;47.520;19.016;2023-06-04T07:07:12;99472.69;;;17.29;43.10
42289;BME280;30230;47.520;19.016;2023-06-04T07:09:12;99470.72;;;17.41;46.59
42289;BME280;30230;47.520;19.016;2023-06-04T07:11:13;99470.44;;;17.55;50.31
42289;BME280;30230;47.520;19.016;2023-06-04T07:13:14;99470.16;;;17.68;50.02
42289;BME280;30230;47.520;19.016;2023-06-04T07:15:18;99463.16;;;17.60;45.11
42289;BME280;30230;47.520;19.016;2023-06-04T07:17:19;99479.66;;;17.65;46.84
42289;BME280;30230;47.520;19.016;2023-06-04T07:19:19;99461.91;;;17.51;45.88
42289;BME280;30230;47.520;19.016;2023-06-04T07:21:19;99474.94;;;17.61;46.58
42289;BME280;30230;47.520;19.016;2023-06-04T07:23:22;99463.22;;;17.49;44.30
42289;BME280;30230;47.520;19.016;2023-06-04T07:25:22;99468.38;;;17.62;43.50
42289;BME280;30230;47.520;19.016;2023-06-04T07:27:23;99468.00;;;17.70;45.80
42289;BME280;30230;47.520;19.016;2023-06-04T07:29:25;99464.81;;;17.73;46.22
42289;BME280;30230;47.520;19.016;2023-06-04T07:31:26;99470.72;;;17.70;47.31
42289;BME280;30230;47.520;19.016;2023-06-04T07:33:26;99460.75;;;17.76;44.80
42289;BME280;30230;47.520;19.016;2023-06-04T07:35:26;99465.91;;;17.89;42.93
42289;BME280;30230;47.520;19.016;2023-06-04T07:37:27;99460.84;;;17.98;42.65
42289;BME280;30230;47.520;19.016;2023-06-04T07:39:27;99465.44;;;18.42;41.93
42289;BME280;30230;47.520;19.016;2023-06-04T07:41:29;99471.94;;;18.75;40.54
42289;BME280;30230;47.520;19.016;2023-06-04T07:43:29;99468.66;;;18.73;46.50
42289;BME280;30230;47.520;19.016;2023-06-04T07:45:32;99466.31;;;18.82;45.99
42289;BME280;30230;47.520;19.016;2023-06-04T07:47:32;99466.75;;;18.95;42.39
42289;BME280;30230;47.520;19.016;2023-06-04T07:49:33;99464.63;;;18.97;43.84
42289;BME280;30230;47.520;19.016;2023-06-04T07:51:33;99461.28;;;18.95;43.49
42289;BME280;30230;47.520;19.016;2023-06-04T07:53:34;99447.38;;;18.97;46.78
42289;BME280;30230;47.520;19.016;2023-06-04T07:55:36;99465.75;;;19.02;45.97
42289;BME280;30230;47.520;19.016;2023-06-04T07:57:36;99474.16;;;19.17;49.02
42289;BME280;30230;47.520;19.016;2023-06-04T07:59:37;99475.16;;;19.11;46.70
42289;BME280;30230;47.520;19.016;2023-06-04T08:01:37;99478.38;;;19.24;46.68
42289;BME280;30230;47.520;19.016;2023-06-04T08:03:38;99481.94;;;19.25;43.37
42289;BME280;30230;47.520;19.016;2023-06-04T08:05:38;99469.31;;;19.24;40.74
42289;BME280;30230;47.520;19.016;2023-06-04T08:07:40;99479.69;;;19.22;39.88
42289;BME280;30230;47.520;19.016;2023-06-04T08:09:41;99471.22;;;19.02;42.18
42289;BME280;30230;47.520;19.016;2023-06-04T08:11:41;99471.75;;;18.98;41.92
42289;BME280;30230;47.520;19.016;2023-06-04T08:13:45;99474.75;;;18.97;46.43
42289;BME280;30230;47.520;19.016;2023-06-04T08:15:45;99479.88;;;18.93;40.88
42289;BME280;30230;47.520;19.016;2023-06-04T08:17:46;99472.00;;;18.97;41.27
42289;BME280;30230;47.520;19.016;2023-06-04T08:19:46;99458.66;;;18.84;41.34
42289;BME280;30230;47.520;19.016;2023-06-04T08:21:47;99470.44;;;19.06;38.36
42289;BME280;30230;47.520;19.016;2023-06-04T08:23:47;99450.19;;;18.85;40.76
42289;BME280;30230;47.520;19.016;2023-06-04T08:25:48;99469.44;;;18.90;45.01
42289;BME280;30230;47.520;19.016;2023-06-04T08:27:48;99472.22;;;18.95;44.64
42289;BME280;30230;47.520;19.016;2023-06-04T08:29:49;99481.59;;;18.99;39.97
42289;BME280;30230;47.520;19.016;2023-06-04T08:31:49;99484.75;;;19.08;44.24
42289;BME280;30230;47.520;19.016;2023-06-04T08:33:50;99484.09;;;19.23;47.14
42289;BME280;30230;47.520;19.016;2023-06-04T08:35:50;99471.53;;;19.27;46.25
42289;BME280;30230;47.520;19.016;2023-06-04T08:37:50;99481.63;;;19.48;40.74
42289;BME280;30230;47.520;19.016;2023-06-04T08:39:51;99479.81;;;19.54;38.74
42289;BME280;30230;47.520;19.016;2023-06-04T08:41:56;99484.63;;;19.69;38.71
42289;BME280;30230;47.520;19.016;2023-06-04T08:43:57;99477.00;;;19.71;35.36
42289;BME280;30230;47.520;19.016;2023-06-04T08:45:59;99449.84;;;19.47;38.64
42289;BME280;30230;47.520;19.016;2023-06-04T08:48:09;99480.38;;;19.56;39.41
42289;BME280;30230;47.520;19.016;2023-06-04T08:50:16;99475.66;;;19.51;42.64
42289;BME280;30230;47.520;19.016;2023-06-04T08:52:17;99461.28;;;19.39;42.82
42289;BME280;30230;47.520;19.016;2023-06-04T08:54:21;99476.63;;;19.40;41.15
42289;BME280;30230;47.520;19.016;2023-06-04T08:56:21;99478.22;;;19.36;37.93
42289;BME280;30230;47.520;19.016;2023-06-04T08:58:23;99477.28;;;19.25;38.51
42289;BME280;30230;47.520;19.016;2023-06-04T09:00:23;99475.81;;;19.18;39.94
42289;BME280;30230;47.520;19.016;2023-06-04T09:02:27;99477.66;;;19.12;40.79
42289;BME280;30230;47.520;19.016;2023-06-04T09:04:28;99457.59;;;19.07;38.52
42289;BME280;30230;47.520;19.016;2023-06-04T09:06:29;99474.41;;;19.15;38.60
42289;BME280;30230;47.520;19.016;2023-06-04T09:08:34;99464.03;;;18.95;43.67
42289;BME280;30230;47.520;19.016;2023-06-04T09:10:37;99470.31;;;18.96;40.93
42289;BME280;30230;47.520;19.016;2023-06-04T09:12:42;99479.63;;;18.95;40.65
42289;BME280;30230;47.520;19.016;2023-06-04T09:14:44;99480.78;;;18.99;42.13
42289;BME280;30230;47.520;19.016;2023-06-04T09:16:54;99481.59;;;18.99;42.83
42289;BME280;30230;47.520;19.016;2023-06-04T09:19:00;99469.25;;;18.97;40.86
42289;BME280;30230;47.520;19.016;2023-06-04T09:23:12;99477.84;;;19.06;39.41
42289;BME280;30230;47.520;19.016;2023-06-04T09:27:20;99481.88;;;19.20;37.80
42289;BME280;30230;47.520;19.016;2023-06-04T09:29:22;99491.09;;;19.14;38.85
42289;BME280;30230;47.520;19.016;2023-06-04T09:31:22;99475.16;;;19.11;39.27
42289;BME280;30230;47.520;19.016;2023-06-04T09:33:26;99478.31;;;19.19;38.12
42289;BME280;30230;47.520;19.016;2023-06-04T09:35:27;99467.28;;;19.14;39.04
42289;BME280;30230;47.520;19.016;2023-06-04T09:37:27;99486.06;;;19.27;38.98
42289;BME280;30230;47.520;19.016;2023-06-04T09:39:28;99469.56;;;19.22;41.60
42289;BME280;30230;47.520;19.016;2023-06-04T09:41:28;99475.38;;;19.26;38.75
42289;BME280;30230;47.520;19.016;2023-06-04T09:43:29;99474.28;;;19.27;39.10
42289;BME280;30230;47.520;19.016;2023-06-04T09:45:31;99483.97;;;19.35;39.26
42289;BME280;30230;47.520;19.016;2023-06-04T09:47:39;99468.84;;;19.32;39.62
42289;BME280;30230;47.520;19.016;2023-06-04T09:49:44;99484.84;;;19.40;39.52
42289;BME280;30230;47.520;19.016;2023-06-04T09:51:48;99465.50;;;19.25;38.81
42289;BME280;30230;47.520;19.016;2023-06-04T09:54:02;99477.66;;;19.34;42.11
42289;BME280;30230;47.520;19.016;2023-06-04T09:56:05;99477.06;;;19.32;40.92
42289;BME280;30230;47.520;19.016;2023-06-04T09:58:12;99465.56;;;19.30;40.56
42289;BME280;30230;47.520;19.016;2023-06-04T10:00:33;99475.47;;;19.36;40.89
42289;BME280;30230;47.520;19.016;2023-06-04T10:02:35;99473.56;;;19.37;43.27
42289;BME280;30230;47.520;19.016;2023-06-04T10:04:36;99468.28;;;19.30;41.61
42289;BME280;30230;47.520;19.016;2023-06-04T10:06:37;99485.28;;;19.54;39.78
42289;BME280;30230;47.520;19.016;2023-06-04T10:08:38;99491.47;;;19.44;39.41
42289;BME280;30230;47.520;19.016;2023-06-04T10:10:41;99486.00;;;19.44;39.70
42289;BME280;30230;47.520;19.016;2023-06-04T10:12:42;99488.81;;;19.49;41.55
42289;BME280;30230;47.520;19.016;2023-06-04T10:15:05;99477.25;;;19.47;42.88
42289;BME280;30230;47.520;19.016;2023-06-04T10:17:07;99494.56;;;19.53;39.38
42289;BME280;30230;47.520;19.016;2023-06-04T10:19:09;99492.38;;;19.50;39.66
42289;BME280;30230;47.520;19.016;2023-06-04T10:21:13;99485.53;;;19.52;38.78
42289;BME280;30230;47.520;19.016;2023-06-04T10:23:14;99496.00;;;19.56;37.76
42289;BME280;30230;47.520;19.016;2023-06-04T10:25:15;99487.19;;;19.53;37.82
42289;BME280;30230;47.520;19.016;2023-06-04T10:27:17;99491.34;;;19.56;39.75
42289;BME280;30230;47.520;19.016;2023-06-04T10:29:18;99489.38;;;19.51;39.77
42289;BME280;30230;47.520;19.016;2023-06-04T10:31:19;99474.63;;;19.58;38.46
42289;BME280;30230;47.520;19.016;2023-06-04T10:33:20;99483.16;;;19.83;38.62
42289;BME280;30230;47.520;19.016;2023-06-04T10:35:33;99479.84;;;20.45;36.19
42289;BME280;30230;47.520;19.016;2023-06-04T10:37:34;99489.41;;;20.75;35.46
42289;BME280;30230;47.520;19.016;2023-06-04T10:39:35;99482.88;;;20.81;36.68
42289;BME280;30230;47.520;19.016;2023-06-04T10:41:36;99482.28;;;20.74;40.36